createdAt,value
2023-04-24T00:00:33.879Z,22.40
2023-04-24T00:03:00.725Z,22.40
2023-04-24T00:05:27.392Z,22.36
2023-04-24T00:07:54.318Z,22.31
2023-04-24T00:10:21.072Z,22.32
2023-04-24T00:12:47.848Z,22.29
2023-04-24T00:15:14.390Z,22.36
2023-04-24T00:17:41.131Z,22.34
2023-04-24T00:20:08.047Z,22.33
2023-04-24T00:22:34.831Z,22.29
2023-04-24T00:25:01.337Z,22.32
2023-04-24T00:27:27.949Z,22.30
2023-04-24T00:29:55.733Z,22.28
2023-04-24T00:32:22.402Z,22.31
2023-04-24T00:34:49.388Z,22.31
2023-04-24T00:37:16.293Z,22.24
2023-04-24T00:39:45.230Z,22.25
2023-04-24T00:42:12.070Z,22.27
2023-04-24T00:44:38.675Z,22.22
2023-04-24T00:47:05.313Z,22.21
2023-04-24T00:49:31.925Z,22.25
2023-04-24T00:52:00.367Z,22.25
2023-04-24T00:54:26.979Z,22.22
2023-04-24T00:56:53.674Z,22.17
2023-04-24T00:59:20.344Z,22.15
2023-04-24T01:01:47.061Z,22.02
2023-04-24T01:04:13.955Z,22.18
2023-04-24T01:06:40.960Z,22.18
2023-04-24T01:09:11.065Z,22.33
2023-04-24T01:11:38.291Z,22.46
2023-04-24T01:14:05.440Z,22.39
2023-04-24T01:16:31.972Z,22.38
2023-04-24T01:18:58.510Z,22.34
2023-04-24T01:21:28.905Z,22.42
2023-04-24T01:23:57.698Z,22.22
2023-04-24T01:26:26.394Z,22.07
2023-04-24T01:28:53.667Z,21.95
2023-04-24T01:31:20.277Z,22.08
2023-04-24T01:33:46.920Z,22.22
2023-04-24T01:36:14.546Z,22.24
2023-04-24T01:38:41.156Z,22.24
2023-04-24T01:41:07.874Z,22.09
2023-04-24T01:43:34.465Z,22.21
2023-04-24T01:46:01.216Z,22.09
2023-04-24T01:48:28.109Z,22.12
2023-04-24T01:50:54.958Z,21.93
2023-04-24T01:53:21.632Z,21.51
2023-04-24T01:55:48.155Z,21.61
2023-04-24T01:58:14.699Z,21.65
2023-04-24T02:00:41.272Z,21.72
2023-04-24T02:03:08.544Z,21.71
2023-04-24T02:05:35.137Z,21.71
2023-04-24T02:08:03.501Z,21.72
2023-04-24T02:10:30.056Z,21.74
2023-04-24T02:13:00.642Z,21.64
2023-04-24T02:15:27.184Z,21.61
2023-04-24T02:17:53.743Z,21.60
2023-04-24T02:20:20.325Z,21.52
2023-04-24T02:22:46.849Z,21.46
2023-04-24T02:25:13.408Z,21.54
2023-04-24T02:27:39.924Z,21.63
2023-04-24T02:30:07.260Z,21.65
2023-04-24T02:32:35.013Z,21.57
2023-04-24T02:35:02.296Z,21.45
2023-04-24T02:37:28.834Z,21.40
2023-04-24T02:39:55.582Z,21.24
2023-04-24T02:44:48.672Z,21.37
2023-04-24T02:47:15.346Z,21.49
2023-04-24T02:49:43.205Z,21.57
2023-04-24T02:52:11.653Z,21.47
2023-04-24T02:54:38.192Z,21.49
2023-04-24T02:57:04.820Z,21.50
2023-04-24T02:59:31.442Z,21.53
2023-04-24T03:01:57.972Z,21.52
2023-04-24T03:04:24.626Z,21.31
2023-04-24T03:06:53.694Z,21.32
2023-04-24T03:09:20.713Z,21.30
2023-04-24T03:11:47.981Z,21.31
2023-04-24T03:14:14.546Z,21.07
2023-04-24T03:16:41.336Z,21.30
2023-04-24T03:19:08.045Z,21.48
2023-04-24T03:21:41.777Z,21.64
2023-04-24T03:24:09.794Z,21.51
2023-04-24T03:26:37.241Z,21.61
2023-04-24T03:29:21.856Z,21.73
2023-04-24T03:31:48.810Z,21.74
2023-04-24T03:34:15.458Z,21.82
2023-04-24T03:36:42.275Z,21.87
2023-04-24T03:39:09.174Z,21.94
2023-04-24T03:41:37.466Z,21.98
2023-04-24T03:44:13.324Z,22.02
2023-04-24T03:46:41.103Z,21.99
2023-04-24T03:49:07.705Z,21.90
2023-04-24T03:51:37.915Z,21.90
2023-04-24T03:54:14.685Z,21.99
2023-04-24T03:56:41.497Z,22.07
2023-04-24T03:59:11.385Z,22.05
2023-04-24T04:01:42.843Z,21.99
2023-04-24T04:04:14.455Z,21.64
2023-04-24T04:06:41.960Z,21.22
2023-04-24T04:09:09.656Z,21.20
2023-04-24T04:11:36.556Z,21.13
2023-04-24T04:14:03.359Z,21.08
2023-04-24T04:16:30.847Z,21.20
2023-04-24T04:19:03.887Z,21.19
2023-04-24T04:21:31.847Z,21.15
2023-04-24T04:24:10.664Z,21.23
2023-04-24T04:26:41.589Z,21.26
2023-04-24T04:29:11.215Z,21.34
2023-04-24T04:31:41.974Z,21.17
2023-04-24T04:34:12.764Z,21.27
2023-04-24T04:36:41.018Z,21.27
2023-04-24T04:39:30.933Z,21.51
2023-04-24T04:42:01.491Z,21.36
2023-04-24T04:44:37.103Z,21.28
2023-04-24T04:47:06.428Z,21.17
2023-04-24T04:49:35.714Z,21.24
2023-04-24T04:52:02.531Z,21.10
2023-04-24T04:54:29.366Z,21.21
2023-04-24T04:56:58.218Z,21.17
2023-04-24T04:59:25.169Z,21.04
2023-04-24T05:01:57.652Z,21.26
2023-04-24T05:04:24.490Z,21.30
2023-04-24T05:06:52.234Z,21.39
2023-04-24T05:09:19.370Z,21.39
2023-04-24T05:11:53.015Z,21.30
2023-04-24T05:14:20.084Z,21.36
2023-04-24T05:16:46.743Z,21.42
2023-04-24T05:19:15.676Z,21.49
2023-04-24T05:21:42.551Z,21.52
2023-04-24T05:24:10.470Z,21.73
2023-04-24T05:26:46.860Z,21.54
2023-04-24T05:29:15.636Z,21.54
2023-04-24T05:31:43.016Z,21.65
2023-04-24T05:34:09.582Z,21.67
2023-04-24T05:36:39.985Z,21.87
2023-04-24T05:39:08.197Z,21.92
2023-04-24T05:41:35.424Z,21.70
2023-04-24T05:44:01.987Z,21.76
2023-04-24T05:46:28.578Z,21.74
2023-04-24T05:48:56.399Z,21.71
2023-04-24T05:51:23.102Z,21.83
2023-04-24T05:53:49.785Z,21.80
2023-04-24T05:56:16.662Z,22.14
2023-04-24T05:58:43.187Z,22.17
2023-04-24T06:01:10.563Z,22.16
2023-04-24T06:03:39.429Z,22.32
2023-04-24T06:06:07.362Z,22.44
2023-04-24T06:08:34.833Z,22.46
2023-04-24T06:11:03.920Z,22.78
2023-04-24T06:13:31.357Z,23.66
2023-04-24T06:16:17.893Z,24.47
2023-04-24T06:18:51.498Z,25.91
2023-04-24T06:21:19.428Z,27.42
2023-04-24T06:23:47.400Z,29.48
2023-04-24T06:26:15.621Z,31.10
2023-04-24T06:28:42.146Z,33.56
2023-04-24T06:31:08.659Z,33.95
2023-04-24T06:33:35.399Z,32.91
2023-04-24T06:36:01.989Z,32.59
2023-04-24T06:38:30.652Z,32.82
2023-04-24T06:40:57.190Z,33.78
2023-04-24T06:43:23.721Z,33.50
2023-04-24T06:45:50.976Z,32.48
2023-04-24T06:48:17.818Z,33.16
2023-04-24T06:50:44.540Z,33.55
2023-04-24T06:53:13.612Z,33.24
2023-04-24T06:55:40.248Z,31.50
2023-04-24T06:58:07.277Z,30.95
2023-04-24T07:00:33.797Z,31.92
2023-04-24T07:03:00.746Z,31.16
2023-04-24T07:05:27.395Z,30.16
2023-04-24T07:07:54.203Z,30.94
2023-04-24T07:10:21.189Z,31.62
2023-04-24T07:12:48.421Z,33.51
2023-04-24T07:15:15.071Z,35.31
2023-04-24T07:17:44.565Z,35.60
2023-04-24T07:20:12.506Z,36.31
2023-04-24T07:22:39.818Z,38.27
2023-04-24T07:25:06.682Z,39.82
2023-04-24T07:27:33.875Z,40.84
2023-04-24T07:30:00.464Z,41.50
2023-04-24T07:32:30.043Z,43.04
2023-04-24T07:34:56.615Z,42.50
2023-04-24T07:37:23.958Z,41.78
2023-04-24T07:39:50.574Z,41.08
2023-04-24T07:42:17.069Z,41.03
2023-04-24T07:44:43.609Z,41.05
2023-04-24T07:47:10.194Z,42.21
2023-04-24T07:49:36.722Z,43.50
2023-04-24T07:52:03.664Z,43.01
2023-04-24T07:54:30.809Z,41.41
2023-04-24T07:56:57.323Z,40.87
2023-04-24T07:59:23.846Z,41.16
2023-04-24T08:01:50.405Z,41.10
2023-04-24T08:04:17.061Z,41.72
2023-04-24T08:06:43.689Z,40.10
2023-04-24T08:09:10.789Z,38.15
2023-04-24T08:11:37.322Z,37.25
2023-04-24T08:14:03.887Z,36.48
2023-04-24T08:16:30.487Z,36.69
2023-04-24T08:18:57.024Z,36.55
2023-04-24T08:21:24.234Z,34.81
2023-04-24T08:23:51.122Z,33.15
2023-04-24T08:26:17.717Z,32.35
2023-04-24T08:28:44.336Z,32.57
2023-04-24T08:31:11.154Z,33.31
2023-04-24T08:33:37.726Z,33.19
2023-04-24T08:36:05.766Z,32.69
2023-04-24T08:38:32.399Z,32.38
2023-04-24T08:41:00.544Z,31.70
2023-04-24T08:43:28.309Z,30.98
2023-04-24T08:45:57.474Z,30.81
2023-04-24T08:48:30.832Z,30.66
2023-04-24T08:50:59.611Z,30.24
2023-04-24T08:53:27.315Z,29.94
2023-04-24T08:55:56.459Z,29.26
2023-04-24T08:58:24.075Z,28.98
2023-04-24T09:00:50.798Z,28.37
2023-04-24T09:03:18.143Z,27.87
2023-04-24T09:05:47.482Z,27.59
2023-04-24T09:08:15.055Z,27.47
2023-04-24T09:10:42.172Z,27.38
2023-04-24T09:13:12.223Z,27.26
2023-04-24T09:15:39.745Z,27.17
2023-04-24T09:18:06.551Z,27.06
2023-04-24T09:20:33.586Z,27.22
2023-04-24T09:23:00.288Z,27.15
2023-04-24T09:25:34.592Z,27.07
2023-04-24T09:28:02.951Z,27.30
2023-04-24T09:30:29.594Z,27.01
2023-04-24T09:33:13.325Z,27.20
2023-04-24T09:35:44.546Z,26.87
2023-04-24T09:38:11.782Z,26.71
2023-04-24T09:40:41.021Z,26.93
2023-04-24T09:43:11.620Z,27.19
2023-04-24T09:45:39.569Z,27.23
2023-04-24T09:48:08.823Z,27.10
2023-04-24T09:50:35.604Z,27.25
2023-04-24T09:53:09.812Z,27.03
2023-04-24T09:55:40.608Z,26.85
2023-04-24T09:58:09.183Z,27.03
2023-04-24T10:00:35.757Z,27.25
2023-04-24T10:03:04.638Z,27.90
2023-04-24T10:05:33.612Z,27.70
2023-04-24T10:08:07.744Z,27.59
2023-04-24T10:10:36.379Z,27.57
2023-04-24T10:13:03.063Z,27.33
2023-04-24T10:15:29.670Z,27.07
2023-04-24T10:17:56.546Z,27.15
2023-04-24T10:20:24.955Z,26.78
2023-04-24T10:22:53.661Z,26.71
2023-04-24T10:25:25.350Z,26.63
2023-04-24T10:27:53.092Z,26.11
2023-04-24T10:30:20.896Z,26.03
2023-04-24T10:32:47.461Z,26.10
2023-04-24T10:35:15.142Z,25.96
2023-04-24T10:37:44.314Z,25.74
2023-04-24T10:40:11.716Z,25.60
2023-04-24T10:42:44.633Z,25.72
2023-04-24T10:45:19.455Z,25.56
2023-04-24T10:48:06.024Z,25.56
2023-04-24T10:50:53.251Z,25.88
2023-04-24T10:53:21.577Z,26.12
2023-04-24T10:55:49.961Z,26.07
2023-04-24T10:58:17.945Z,26.36
2023-04-24T11:00:47.707Z,26.70
2023-04-24T11:03:24.629Z,27.36
2023-04-24T11:06:02.035Z,27.57
2023-04-24T11:08:52.492Z,28.06
2023-04-24T11:11:20.381Z,27.70
2023-04-24T11:13:55.900Z,27.64
2023-04-24T11:16:27.517Z,27.66
2023-04-24T11:19:01.996Z,27.43
2023-04-24T11:21:42.912Z,27.40
2023-04-24T11:24:32.069Z,27.31
2023-04-24T11:27:15.032Z,26.43
2023-04-24T11:30:01.045Z,26.39
2023-04-24T11:32:28.873Z,26.16
2023-04-24T11:35:09.944Z,26.15
2023-04-24T11:37:37.316Z,26.50
2023-04-24T11:40:05.783Z,26.05
2023-04-24T11:42:41.564Z,25.87
2023-04-24T11:45:10.669Z,26.05
2023-04-24T11:47:37.342Z,26.03
2023-04-24T11:50:05.950Z,26.50
2023-04-24T11:52:33.542Z,26.56
2023-04-24T11:55:00.742Z,26.59
2023-04-24T11:57:30.013Z,26.48
2023-04-24T11:59:56.932Z,26.67
2023-04-24T12:02:25.273Z,26.71
2023-04-24T12:04:55.765Z,26.92
2023-04-24T12:07:24.198Z,27.14
2023-04-24T12:10:00.963Z,27.19
2023-04-24T12:12:28.557Z,26.91
2023-04-24T12:14:58.313Z,27.17
2023-04-24T12:17:29.036Z,27.29
2023-04-24T12:20:06.491Z,27.48
2023-04-24T12:22:54.790Z,27.33
2023-04-24T12:25:23.160Z,26.92
2023-04-24T12:28:13.255Z,27.17
2023-04-24T12:30:49.245Z,27.69
2023-04-24T12:33:20.891Z,28.12
2023-04-24T12:35:52.307Z,28.51
2023-04-24T12:38:23.852Z,29.06
2023-04-24T12:41:03.130Z,29.27
2023-04-24T12:43:29.790Z,29.06
2023-04-24T12:45:56.316Z,28.89
2023-04-24T12:48:23.423Z,29.13
2023-04-24T12:50:50.030Z,29.05
2023-04-24T12:53:17.106Z,29.26
2023-04-24T12:55:43.679Z,29.32
2023-04-24T12:58:10.286Z,29.40
2023-04-24T13:00:37.346Z,29.56
2023-04-24T13:03:04.540Z,29.39
2023-04-24T13:05:31.772Z,30.17
2023-04-24T13:07:58.598Z,30.49
2023-04-24T13:10:25.149Z,30.60
2023-04-24T13:12:51.653Z,30.53
2023-04-24T13:15:18.248Z,30.80
2023-04-24T13:17:44.866Z,31.43
2023-04-24T13:20:11.471Z,31.62
2023-04-24T13:22:38.704Z,31.17
2023-04-24T13:25:07.051Z,30.79
2023-04-24T13:27:33.707Z,30.90
2023-04-24T13:30:00.329Z,31.06
2023-04-24T13:32:27.779Z,31.08
2023-04-24T13:34:54.320Z,30.37
2023-04-24T13:37:20.833Z,31.05
2023-04-24T13:39:47.435Z,30.79
2023-04-24T13:42:13.966Z,30.31
2023-04-24T13:44:41.388Z,29.81
2023-04-24T13:47:08.016Z,29.69
2023-04-24T13:49:34.573Z,28.88
2023-04-24T13:52:01.466Z,28.45
2023-04-24T13:54:28.024Z,27.92
2023-04-24T13:56:57.394Z,28.06
2023-04-24T13:59:24.067Z,27.95
2023-04-24T14:01:51.003Z,27.96
2023-04-24T14:04:17.870Z,27.79
2023-04-24T14:06:44.849Z,28.45
2023-04-24T14:09:11.478Z,28.44
2023-04-24T14:11:38.008Z,28.23
2023-04-24T14:14:04.760Z,28.35
2023-04-24T14:16:31.809Z,28.25
2023-04-24T14:18:58.631Z,28.23
2023-04-24T14:21:25.358Z,28.48
2023-04-24T14:23:51.900Z,28.40
2023-04-24T14:26:18.449Z,27.82
2023-04-24T14:28:45.004Z,27.62
2023-04-24T14:31:11.572Z,27.69
2023-04-24T14:33:38.101Z,27.77
2023-04-24T14:36:06.561Z,27.63
2023-04-24T14:38:33.149Z,27.15
2023-04-24T14:41:07.264Z,27.03
2023-04-24T14:43:36.180Z,26.79
2023-04-24T14:46:03.749Z,26.49
2023-04-24T14:48:30.316Z,26.42
2023-04-24T14:50:56.881Z,26.31
2023-04-24T14:53:23.501Z,26.51
2023-04-24T14:55:50.117Z,26.57
2023-04-24T14:58:16.678Z,26.56
2023-04-24T15:00:43.462Z,26.59
2023-04-24T15:03:10.225Z,26.49
2023-04-24T15:05:37.677Z,26.24
2023-04-24T15:08:04.922Z,26.35
2023-04-24T15:10:31.506Z,26.30
2023-04-24T15:12:58.095Z,25.95
2023-04-24T15:15:24.680Z,25.98
2023-04-24T15:17:51.289Z,25.76
2023-04-24T15:20:18.893Z,25.69
2023-04-24T15:22:45.492Z,25.65
2023-04-24T15:25:12.175Z,25.22
2023-04-24T15:27:46.032Z,25.56
2023-04-24T15:30:13.386Z,25.23
2023-04-24T15:32:40.491Z,24.96
2023-04-24T15:35:09.619Z,25.13
2023-04-24T15:37:39.544Z,25.19
2023-04-24T15:40:08.564Z,25.00
2023-04-24T15:42:36.214Z,24.90
2023-04-24T15:45:03.439Z,24.80
2023-04-24T15:47:30.023Z,25.03
2023-04-24T15:49:56.597Z,25.10
2023-04-24T15:52:23.211Z,25.03
2023-04-24T15:54:50.025Z,24.70
2023-04-24T15:57:16.610Z,24.71
2023-04-24T15:59:43.291Z,24.73
2023-04-24T16:02:11.947Z,24.71
2023-04-24T16:04:38.753Z,24.58
2023-04-24T16:07:05.673Z,24.43
2023-04-24T16:09:32.179Z,24.44
2023-04-24T16:11:58.711Z,24.43
2023-04-24T16:14:25.831Z,24.40
2023-04-24T16:16:52.487Z,24.28
2023-04-24T16:19:19.027Z,24.29
2023-04-24T16:21:45.659Z,24.23
2023-04-24T16:24:12.186Z,24.42
2023-04-24T16:26:39.551Z,24.68
2023-04-24T16:29:06.062Z,24.57
2023-04-24T16:31:33.150Z,24.47
2023-04-24T16:33:59.695Z,24.38
2023-04-24T16:36:26.987Z,24.41
2023-04-24T16:38:53.502Z,24.09
2023-04-24T16:41:20.096Z,23.94
2023-04-24T16:43:46.612Z,23.88
2023-04-24T16:46:13.282Z,23.70
2023-04-24T16:48:39.810Z,23.58
2023-04-24T16:51:06.359Z,23.49
2023-04-24T16:53:32.810Z,23.39
2023-04-24T16:55:59.418Z,23.50
2023-04-24T16:58:26.080Z,23.18
2023-04-24T17:00:52.699Z,23.41
2023-04-24T17:03:19.337Z,23.43
2023-04-24T17:05:46.040Z,23.15
2023-04-24T17:08:12.540Z,23.17
2023-04-24T17:10:39.069Z,23.00
2023-04-24T17:13:05.586Z,22.77
2023-04-24T17:15:32.093Z,22.78
2023-04-24T17:17:58.771Z,22.69
2023-04-24T17:20:26.900Z,22.75
2023-04-24T17:22:54.788Z,22.57
2023-04-24T17:25:21.608Z,22.61
2023-04-24T17:27:48.292Z,22.58
2023-04-24T17:30:15.784Z,22.47
2023-04-24T17:32:42.433Z,22.36
2023-04-24T17:35:09.503Z,22.25
2023-04-24T17:37:36.293Z,22.20
2023-04-24T17:40:03.571Z,22.11
2023-04-24T17:42:30.814Z,22.06
2023-04-24T17:44:57.403Z,22.05
2023-04-24T17:47:26.216Z,21.92
2023-04-24T17:49:53.089Z,21.84
2023-04-24T17:52:19.840Z,21.43
2023-04-24T17:54:46.403Z,21.30
2023-04-24T17:57:13.004Z,21.17
2023-04-24T17:59:39.527Z,21.21
2023-04-24T18:02:06.524Z,21.30
2023-04-24T18:04:33.204Z,21.16
2023-04-24T18:06:59.888Z,21.26
2023-04-24T18:09:26.448Z,21.36
2023-04-24T18:11:53.004Z,21.34
2023-04-24T18:14:19.623Z,21.12
2023-04-24T18:16:46.166Z,21.04
2023-04-24T18:19:12.786Z,21.08
2023-04-24T18:21:39.438Z,20.93
2023-04-24T18:24:06.159Z,21.02
2023-04-24T18:26:32.873Z,20.93
2023-04-24T18:28:59.443Z,21.03
2023-04-24T18:31:26.043Z,20.80
2023-04-24T18:33:54.183Z,20.71
2023-04-24T18:36:20.780Z,20.72
2023-04-24T18:38:47.596Z,20.67
2023-04-24T18:41:14.390Z,20.57
2023-04-24T18:43:40.988Z,20.39
2023-04-24T18:46:07.523Z,20.33
2023-04-24T18:48:34.048Z,20.30
2023-04-24T18:51:00.609Z,20.31
2023-04-24T18:53:27.148Z,20.22
2023-04-24T18:55:56.773Z,20.16
2023-04-24T18:58:23.306Z,20.21
2023-04-24T19:00:49.901Z,20.18
2023-04-24T19:03:16.909Z,20.09
2023-04-24T19:05:43.606Z,20.14
2023-04-24T19:08:10.163Z,20.06
2023-04-24T19:10:36.784Z,20.05
2023-04-24T19:13:03.618Z,20.03
2023-04-24T19:15:30.253Z,19.99
2023-04-24T19:17:56.952Z,19.95
2023-04-24T19:20:23.597Z,19.86
2023-04-24T19:22:50.810Z,19.88
2023-04-24T19:25:17.396Z,19.78
2023-04-24T19:27:44.007Z,19.68
2023-04-24T19:30:10.906Z,19.82
2023-04-24T19:32:37.463Z,19.83
2023-04-24T19:35:04.252Z,19.76
2023-04-24T19:37:32.260Z,19.72
2023-04-24T19:39:58.811Z,19.66
2023-04-24T19:42:39.803Z,19.62
2023-04-24T19:45:11.548Z,19.60
2023-04-24T19:47:38.293Z,19.42
2023-04-24T19:50:05.607Z,19.36
2023-04-24T19:52:32.099Z,19.49
2023-04-24T19:54:59.633Z,19.38
2023-04-24T19:57:26.134Z,19.38
2023-04-24T19:59:54.804Z,19.39
2023-04-24T20:02:21.408Z,19.45
2023-04-24T20:04:48.436Z,19.50
2023-04-24T20:07:15.688Z,19.47
2023-04-24T20:09:42.241Z,19.42
2023-04-24T20:12:09.663Z,19.46
2023-04-24T20:14:36.264Z,19.51
2023-04-24T20:17:02.744Z,19.42
2023-04-24T20:19:29.345Z,19.43
2023-04-24T20:21:55.932Z,19.42
2023-04-24T20:24:22.504Z,19.40
2023-04-24T20:26:49.008Z,19.39
2023-04-24T20:29:15.802Z,19.25
2023-04-24T20:31:42.368Z,19.20
2023-04-24T20:34:09.001Z,19.10
2023-04-24T20:36:35.494Z,19.10
2023-04-24T20:39:02.207Z,19.15
2023-04-24T20:41:30.283Z,19.17
2023-04-24T20:43:56.834Z,19.14
2023-04-24T20:46:23.553Z,19.06
2023-04-24T20:48:50.903Z,19.11
2023-04-24T20:51:19.549Z,19.05
2023-04-24T20:53:46.128Z,19.04
2023-04-24T20:56:12.703Z,18.97
2023-04-24T20:58:39.777Z,18.94
2023-04-24T21:01:06.584Z,18.88
2023-04-24T21:03:33.275Z,18.85
2023-04-24T21:06:00.001Z,18.93
2023-04-24T21:08:26.708Z,18.98
2023-04-24T21:10:53.245Z,18.87
2023-04-24T21:13:19.749Z,18.83
2023-04-24T21:15:46.386Z,18.87
2023-04-24T21:18:12.950Z,18.87
2023-04-24T21:20:39.520Z,18.92
2023-04-24T21:23:06.048Z,18.92
2023-04-24T21:25:32.897Z,18.98
2023-04-24T21:27:59.877Z,19.02
2023-04-24T21:30:26.476Z,19.02
2023-04-24T21:32:53.755Z,19.03
2023-04-24T21:35:20.459Z,18.96
2023-04-24T21:37:47.220Z,18.87
2023-04-24T21:40:15.748Z,18.97
2023-04-24T21:42:42.570Z,18.94
2023-04-24T21:45:09.974Z,18.94
2023-04-24T21:47:36.604Z,18.93
2023-04-24T21:50:04.477Z,18.85
2023-04-24T21:52:31.177Z,18.82
2023-04-24T21:54:57.708Z,18.91
2023-04-24T21:57:24.400Z,18.89
2023-04-24T21:59:51.469Z,18.83
2023-04-24T22:02:18.113Z,18.86
2023-04-24T22:04:45.161Z,18.87
2023-04-24T22:07:12.180Z,18.79
2023-04-24T22:09:38.718Z,18.73
2023-04-24T22:12:05.515Z,18.78
2023-04-24T22:14:32.182Z,18.78
2023-04-24T22:16:58.726Z,18.68
2023-04-24T22:19:28.314Z,18.69
2023-04-24T22:21:54.952Z,18.57
2023-04-24T22:24:21.453Z,18.58
2023-04-24T22:26:48.005Z,18.57
2023-04-24T22:29:14.607Z,18.45
2023-04-24T22:31:41.703Z,18.38
2023-04-24T22:34:08.767Z,18.40
2023-04-24T22:36:35.347Z,18.41
2023-04-24T22:39:01.866Z,18.33
2023-04-24T22:41:28.369Z,18.37
2023-04-24T22:43:55.867Z,18.20
2023-04-24T22:46:22.672Z,18.31
2023-04-24T22:48:49.311Z,18.34
2023-04-24T22:51:18.102Z,18.38
2023-04-24T22:53:44.933Z,18.46
2023-04-24T22:56:11.831Z,18.41
2023-04-24T22:58:38.597Z,18.36
2023-04-24T23:01:05.207Z,18.41
2023-04-24T23:03:31.880Z,18.43
2023-04-24T23:05:58.509Z,18.48
2023-04-24T23:08:25.048Z,18.49
2023-04-24T23:10:51.584Z,18.50
2023-04-24T23:13:18.170Z,18.52
2023-04-24T23:15:44.807Z,18.37
2023-04-24T23:18:11.643Z,18.38
2023-04-24T23:20:38.957Z,18.57
2023-04-24T23:23:05.607Z,18.54
2023-04-24T23:25:35.016Z,18.51
2023-04-24T23:28:01.527Z,18.54
2023-04-24T23:30:28.102Z,18.54
2023-04-24T23:32:54.687Z,18.47
2023-04-24T23:35:21.272Z,18.51
2023-04-24T23:37:48.230Z,18.31
2023-04-24T23:40:14.766Z,18.32
2023-04-24T23:42:41.305Z,18.26
2023-04-24T23:45:08.470Z,18.27
2023-04-24T23:47:34.977Z,18.31
2023-04-24T23:50:01.515Z,18.30
2023-04-24T23:52:28.139Z,18.29
2023-04-24T23:54:54.678Z,18.23
2023-04-24T23:57:21.756Z,18.08
2023-04-24T23:59:48.392Z,18.06
